sensor_id;sensor_type;location;lat;lon;timestamp;P1;durP1;ratioP1;P2;durP2;ratioP2
58982;SDS011;44771;49.982;8.560;2023-08-17T00:01:35;1999.90;;;999.90;;
58982;SDS011;44771;49.982;8.560;2023-08-17T00:06:39;1999.90;;;999.90;;
58982;SDS011;44771;49.982;8.560;2023-08-17T00:11:40;1999.90;;;999.90;;
58982;SDS011;44771;49.982;8.560;2023-08-17T00:16:42;1999.90;;;999.90;;
58982;SDS011;44771;49.982;8.560;2023-08-17T00:21:45;1999.90;;;999.90;;
58982;SDS011;44771;49.982;8.560;2023-08-17T00:26:47;1999.90;;;999.90;;
58982;SDS011;44771;49.982;8.560;2023-08-17T00:31:49;1999.90;;;999.90;;
58982;SDS011;44771;49.982;8.560;2023-08-17T00:36:52;1999.90;;;999.90;;
58982;SDS011;44771;49.982;8.560;2023-08-17T00:41:54;1999.90;;;999.90;;
58982;SDS011;44771;49.982;8.560;2023-08-17T00:46:56;1999.90;;;999.90;;
58982;SDS011;44771;49.982;8.560;2023-08-17T00:51:59;1999.90;;;999.90;;
58982;SDS011;44771;49.982;8.560;2023-08-17T00:57:02;1999.90;;;999.90;;
58982;SDS011;44771;49.982;8.560;2023-08-17T01:02:04;1999.90;;;999.90;;
58982;SDS011;44771;49.982;8.560;2023-08-17T01:07:07;1999.90;;;999.90;;
58982;SDS011;44771;49.982;8.560;2023-08-17T01:12:12;1999.90;;;999.90;;
58982;SDS011;44771;49.982;8.560;2023-08-17T01:17:22;1999.90;;;999.90;;
58982;SDS011;44771;49.982;8.560;2023-08-17T01:22:29;1999.90;;;999.90;;
58982;SDS011;44771;49.982;8.560;2023-08-17T01:27:36;1999.90;;;999.90;;
58982;SDS011;44771;49.982;8.560;2023-08-17T01:32:43;1999.90;;;999.90;;
58982;SDS011;44771;49.982;8.560;2023-08-17T01:37:50;1999.90;;;999.90;;
58982;SDS011;44771;49.982;8.560;2023-08-17T01:42:54;1999.90;;;999.90;;
58982;SDS011;44771;49.982;8.560;2023-08-17T01:47:56;1999.90;;;999.90;;
58982;SDS011;44771;49.982;8.560;2023-08-17T01:52:58;1999.90;;;999.90;;
58982;SDS011;44771;49.982;8.560;2023-08-17T01:58:02;1999.90;;;999.90;;
58982;SDS011;44771;49.982;8.560;2023-08-17T02:03:04;1999.90;;;999.90;;
58982;SDS011;44771;49.982;8.560;2023-08-17T02:08:06;1999.90;;;999.90;;
58982;SDS011;44771;49.982;8.560;2023-08-17T02:13:11;1999.90;;;999.90;;
58982;SDS011;44771;49.982;8.560;2023-08-17T02:18:18;1999.90;;;999.90;;
58982;SDS011;44771;49.982;8.560;2023-08-17T02:23:20;1999.90;;;999.90;;
58982;SDS011;44771;49.982;8.560;2023-08-17T02:28:23;1999.90;;;999.90;;
58982;SDS011;44771;49.982;8.560;2023-08-17T02:33:25;1999.90;;;999.90;;
58982;SDS011;44771;49.982;8.560;2023-08-17T02:38:27;1999.90;;;999.90;;
58982;SDS011;44771;49.982;8.560;2023-08-17T02:43:30;1999.90;;;999.90;;
58982;SDS011;44771;49.982;8.560;2023-08-17T02:48:31;1999.90;;;999.90;;
58982;SDS011;44771;49.982;8.560;2023-08-17T02:53:33;1999.90;;;999.90;;
58982;SDS011;44771;49.982;8.560;2023-08-17T02:58:36;23.33;;;17.73;;
58982;SDS011;44771;49.982;8.560;2023-08-17T03:03:38;25.80;;;19.42;;
58982;SDS011;44771;49.982;8.560;2023-08-17T03:08:40;88.78;;;75.75;;
58982;SDS011;44771;49.982;8.560;2023-08-17T03:13:43;20.85;;;18.58;;
58982;SDS011;44771;49.982;8.560;2023-08-17T03:18:45;27.15;;;22.00;;
58982;SDS011;44771;49.982;8.560;2023-08-17T03:23:47;31.58;;;21.42;;
58982;SDS011;44771;49.982;8.560;2023-08-17T03:28:50;26.80;;;22.75;;
58982;SDS011;44771;49.982;8.560;2023-08-17T03:33:52;18.77;;;16.85;;
58982;SDS011;44771;49.982;8.560;2023-08-17T03:38:54;24.40;;;20.70;;
58982;SDS011;44771;49.982;8.560;2023-08-17T03:43:57;23.33;;;19.98;;
58982;SDS011;44771;49.982;8.560;2023-08-17T03:48:59;35.53;;;20.90;;
58982;SDS011;44771;49.982;8.560;2023-08-17T03:54:00;32.80;;;21.17;;
58982;SDS011;44771;49.982;8.560;2023-08-17T04:04:16;39.20;;;22.98;;
58982;SDS011;44771;49.982;8.560;2023-08-17T04:09:30;43.90;;;27.55;;
58982;SDS011;44771;49.982;8.560;2023-08-17T04:14:52;34.53;;;26.80;;
58982;SDS011;44771;49.982;8.560;2023-08-17T04:19:56;35.03;;;25.67;;
58982;SDS011;44771;49.982;8.560;2023-08-17T04:24:57;39.65;;;26.50;;
58982;SDS011;44771;49.982;8.560;2023-08-17T04:29:59;27.77;;;25.15;;
58982;SDS011;44771;49.982;8.560;2023-08-17T04:35:03;44.67;;;30.20;;
58982;SDS011;44771;49.982;8.560;2023-08-17T04:40:06;22.58;;;20.42;;
58982;SDS011;44771;49.982;8.560;2023-08-17T04:45:08;28.08;;;22.77;;
58982;SDS011;44771;49.982;8.560;2023-08-17T04:50:12;35.38;;;25.45;;
58982;SDS011;44771;49.982;8.560;2023-08-17T04:55:13;33.75;;;23.17;;
58982;SDS011;44771;49.982;8.560;2023-08-17T05:00:15;36.17;;;20.77;;
58982;SDS011;44771;49.982;8.560;2023-08-17T05:05:19;33.65;;;19.45;;
58982;SDS011;44771;49.982;8.560;2023-08-17T05:10:21;35.30;;;30.00;;
58982;SDS011;44771;49.982;8.560;2023-08-17T05:15:22;32.47;;;21.23;;
58982;SDS011;44771;49.982;8.560;2023-08-17T05:20:26;39.25;;;24.75;;
58982;SDS011;44771;49.982;8.560;2023-08-17T05:25:28;53.65;;;24.92;;
58982;SDS011;44771;49.982;8.560;2023-08-17T05:30:29;48.90;;;29.42;;
58982;SDS011;44771;49.982;8.560;2023-08-17T05:35:32;50.12;;;18.02;;
58982;SDS011;44771;49.982;8.560;2023-08-17T05:40:34;54.38;;;17.77;;
58982;SDS011;44771;49.982;8.560;2023-08-17T05:45:37;56.05;;;18.58;;
58982;SDS011;44771;49.982;8.560;2023-08-17T05:50:42;61.22;;;21.00;;
58982;SDS011;44771;49.982;8.560;2023-08-17T06:01:04;235.98;;;78.65;;
58982;SDS011;44771;49.982;8.560;2023-08-17T06:06:08;70.15;;;24.42;;
58982;SDS011;44771;49.982;8.560;2023-08-17T06:11:10;58.83;;;23.00;;
58982;SDS011;44771;49.982;8.560;2023-08-17T06:16:12;58.25;;;23.23;;
58982;SDS011;44771;49.982;8.560;2023-08-17T06:21:15;215.55;;;60.55;;
58982;SDS011;44771;49.982;8.560;2023-08-17T06:26:17;86.87;;;76.75;;
58982;SDS011;44771;49.982;8.560;2023-08-17T06:31:22;58.87;;;34.08;;
58982;SDS011;44771;49.982;8.560;2023-08-17T06:36:30;53.22;;;32.38;;
58982;SDS011;44771;49.982;8.560;2023-08-17T06:41:32;81.47;;;34.53;;
58982;SDS011;44771;49.982;8.560;2023-08-17T06:46:34;180.35;;;59.92;;
58982;SDS011;44771;49.982;8.560;2023-08-17T06:51:38;113.85;;;38.00;;
58982;SDS011;44771;49.982;8.560;2023-08-17T06:56:40;41.85;;;33.03;;
58982;SDS011;44771;49.982;8.560;2023-08-17T07:07:42;30.88;;;26.90;;
58982;SDS011;44771;49.982;8.560;2023-08-17T07:12:44;34.33;;;28.92;;
58982;SDS011;44771;49.982;8.560;2023-08-17T07:17:46;132.35;;;78.18;;
58982;SDS011;44771;49.982;8.560;2023-08-17T07:22:49;34.65;;;31.02;;
58982;SDS011;44771;49.982;8.560;2023-08-17T07:27:51;44.42;;;29.80;;
58982;SDS011;44771;49.982;8.560;2023-08-17T07:32:52;28.95;;;22.85;;
58982;SDS011;44771;49.982;8.560;2023-08-17T07:37:56;30.37;;;23.33;;
58982;SDS011;44771;49.982;8.560;2023-08-17T07:43:09;27.13;;;22.35;;
58982;SDS011;44771;49.982;8.560;2023-08-17T07:48:11;29.45;;;22.62;;
58982;SDS011;44771;49.982;8.560;2023-08-17T07:53:14;28.17;;;22.73;;
58982;SDS011;44771;49.982;8.560;2023-08-17T07:58:16;67.97;;;30.92;;
58982;SDS011;44771;49.982;8.560;2023-08-17T08:03:18;65.75;;;27.08;;
58982;SDS011;44771;49.982;8.560;2023-08-17T08:08:21;71.20;;;31.92;;
58982;SDS011;44771;49.982;8.560;2023-08-17T08:13:23;40.80;;;33.30;;
58982;SDS011;44771;49.982;8.560;2023-08-17T08:18:25;77.53;;;32.50;;
58982;SDS011;44771;49.982;8.560;2023-08-17T08:23:30;169.70;;;42.50;;
58982;SDS011;44771;49.982;8.560;2023-08-17T08:28:32;245.12;;;84.68;;
58982;SDS011;44771;49.982;8.560;2023-08-17T08:33:34;145.20;;;29.23;;
58982;SDS011;44771;49.982;8.560;2023-08-17T08:38:40;25.58;;;22.70;;
58982;SDS011;44771;49.982;8.560;2023-08-17T08:43:42;171.95;;;46.00;;
58982;SDS011;44771;49.982;8.560;2023-08-17T08:48:46;26.80;;;21.53;;
58982;SDS011;44771;49.982;8.560;2023-08-17T08:53:54;59.80;;;28.30;;
58982;SDS011;44771;49.982;8.560;2023-08-17T08:59:02;68.85;;;22.58;;
58982;SDS011;44771;49.982;8.560;2023-08-17T09:04:05;20.48;;;18.52;;
58982;SDS011;44771;49.982;8.560;2023-08-17T09:09:08;18.42;;;16.73;;
58982;SDS011;44771;49.982;8.560;2023-08-17T09:14:11;34.67;;;22.42;;
58982;SDS011;44771;49.982;8.560;2023-08-17T09:19:13;45.42;;;15.63;;
58982;SDS011;44771;49.982;8.560;2023-08-17T09:24:17;15.48;;;14.10;;
58982;SDS011;44771;49.982;8.560;2023-08-17T09:29:19;18.83;;;16.90;;
58982;SDS011;44771;49.982;8.560;2023-08-17T09:34:22;17.10;;;15.57;;
58982;SDS011;44771;49.982;8.560;2023-08-17T09:39:25;15.57;;;14.27;;
58982;SDS011;44771;49.982;8.560;2023-08-17T09:44:27;16.27;;;14.90;;
58982;SDS011;44771;49.982;8.560;2023-08-17T09:49:30;15.95;;;14.45;;
58982;SDS011;44771;49.982;8.560;2023-08-17T09:54:38;367.13;;;80.70;;
58982;SDS011;44771;49.982;8.560;2023-08-17T09:59:40;16.25;;;14.95;;
58982;SDS011;44771;49.982;8.560;2023-08-17T10:04:42;13.23;;;12.27;;
58982;SDS011;44771;49.982;8.560;2023-08-17T10:09:47;18.87;;;17.30;;
58982;SDS011;44771;49.982;8.560;2023-08-17T10:14:58;13.65;;;12.55;;
58982;SDS011;44771;49.982;8.560;2023-08-17T10:20:04;16.77;;;15.40;;
58982;SDS011;44771;49.982;8.560;2023-08-17T10:25:08;15.43;;;13.82;;
58982;SDS011;44771;49.982;8.560;2023-08-17T10:30:11;95.20;;;23.50;;
58982;SDS011;44771;49.982;8.560;2023-08-17T10:35:13;41.35;;;15.20;;
58982;SDS011;44771;49.982;8.560;2023-08-17T10:40:17;13.75;;;12.63;;
58982;SDS011;44771;49.982;8.560;2023-08-17T10:45:27;13.23;;;12.30;;
58982;SDS011;44771;49.982;8.560;2023-08-17T10:50:32;14.48;;;13.13;;
58982;SDS011;44771;49.982;8.560;2023-08-17T10:55:36;12.18;;;11.10;;
58982;SDS011;44771;49.982;8.560;2023-08-17T11:00:39;12.73;;;11.65;;
58982;SDS011;44771;49.982;8.560;2023-08-17T11:05:42;13.38;;;11.98;;
58982;SDS011;44771;49.982;8.560;2023-08-17T11:10:48;12.75;;;11.65;;
58982;SDS011;44771;49.982;8.560;2023-08-17T11:15:59;12.02;;;10.88;;
58982;SDS011;44771;49.982;8.560;2023-08-17T11:21:05;12.35;;;11.25;;
58982;SDS011;44771;49.982;8.560;2023-08-17T11:26:13;12.10;;;11.20;;
58982;SDS011;44771;49.982;8.560;2023-08-17T11:31:31;13.30;;;12.07;;
58982;SDS011;44771;49.982;8.560;2023-08-17T11:36:33;15.18;;;13.62;;
58982;SDS011;44771;49.982;8.560;2023-08-17T11:41:37;13.23;;;12.00;;
58982;SDS011;44771;49.982;8.560;2023-08-17T11:46:38;12.88;;;11.73;;
58982;SDS011;44771;49.982;8.560;2023-08-17T11:51:40;13.32;;;12.18;;
58982;SDS011;44771;49.982;8.560;2023-08-17T11:56:45;15.68;;;14.50;;
58982;SDS011;44771;49.982;8.560;2023-08-17T12:01:56;15.15;;;14.20;;
58982;SDS011;44771;49.982;8.560;2023-08-17T12:06:58;16.67;;;15.35;;
58982;SDS011;44771;49.982;8.560;2023-08-17T12:12:01;13.75;;;12.75;;
58982;SDS011;44771;49.982;8.560;2023-08-17T12:17:03;12.57;;;11.68;;
58982;SDS011;44771;49.982;8.560;2023-08-17T12:22:07;12.37;;;11.50;;
58982;SDS011;44771;49.982;8.560;2023-08-17T12:27:26;110.88;;;16.75;;
58982;SDS011;44771;49.982;8.560;2023-08-17T12:32:28;12.02;;;11.20;;
58982;SDS011;44771;49.982;8.560;2023-08-17T12:37:30;26.10;;;13.20;;
58982;SDS011;44771;49.982;8.560;2023-08-17T12:42:33;12.07;;;11.38;;
58982;SDS011;44771;49.982;8.560;2023-08-17T12:47:35;95.55;;;15.75;;
58982;SDS011;44771;49.982;8.560;2023-08-17T12:52:36;16.05;;;14.43;;
58982;SDS011;44771;49.982;8.560;2023-08-17T12:57:40;33.45;;;31.50;;
58982;SDS011;44771;49.982;8.560;2023-08-17T13:02:52;14.40;;;13.40;;
58982;SDS011;44771;49.982;8.560;2023-08-17T13:07:54;11.35;;;10.55;;
58982;SDS011;44771;49.982;8.560;2023-08-17T13:12:57;298.20;;;48.95;;
58982;SDS011;44771;49.982;8.560;2023-08-17T13:17:59;13.57;;;12.57;;
58982;SDS011;44771;49.982;8.560;2023-08-17T13:23:01;50.22;;;20.70;;
58982;SDS011;44771;49.982;8.560;2023-08-17T13:28:04;15.88;;;14.63;;
58982;SDS011;44771;49.982;8.560;2023-08-17T13:33:06;35.08;;;14.35;;
58982;SDS011;44771;49.982;8.560;2023-08-17T13:38:08;15.98;;;14.77;;
58982;SDS011;44771;49.982;8.560;2023-08-17T13:43:11;101.45;;;20.05;;
58982;SDS011;44771;49.982;8.560;2023-08-17T13:48:13;11.50;;;10.60;;
58982;SDS011;44771;49.982;8.560;2023-08-17T13:53:15;221.15;;;29.25;;
58982;SDS011;44771;49.982;8.560;2023-08-17T13:58:19;13.43;;;12.40;;
58982;SDS011;44771;49.982;8.560;2023-08-17T14:03:21;9.80;;;9.15;;
58982;SDS011;44771;49.982;8.560;2023-08-17T14:08:22;21.73;;;13.02;;
58982;SDS011;44771;49.982;8.560;2023-08-17T14:13:26;21.55;;;11.90;;
58982;SDS011;44771;49.982;8.560;2023-08-17T14:18:27;10.60;;;9.63;;
58982;SDS011;44771;49.982;8.560;2023-08-17T14:23:29;91.25;;;13.82;;
58982;SDS011;44771;49.982;8.560;2023-08-17T14:28:32;11.27;;;10.27;;
58982;SDS011;44771;49.982;8.560;2023-08-17T14:33:34;11.63;;;10.45;;
58982;SDS011;44771;49.982;8.560;2023-08-17T14:38:36;11.55;;;10.88;;
58982;SDS011;44771;49.982;8.560;2023-08-17T14:43:39;10.32;;;9.55;;
58982;SDS011;44771;49.982;8.560;2023-08-17T14:48:41;10.27;;;9.48;;
58982;SDS011;44771;49.982;8.560;2023-08-17T14:53:46;65.10;;;14.30;;
58982;SDS011;44771;49.982;8.560;2023-08-17T14:58:49;23.17;;;13.00;;
58982;SDS011;44771;49.982;8.560;2023-08-17T15:03:57;114.32;;;28.33;;
58982;SDS011;44771;49.982;8.560;2023-08-17T15:08:59;15.38;;;14.07;;
58982;SDS011;44771;49.982;8.560;2023-08-17T15:14:03;11.00;;;10.00;;
58982;SDS011;44771;49.982;8.560;2023-08-17T15:19:04;13.73;;;12.68;;
58982;SDS011;44771;49.982;8.560;2023-08-17T15:24:07;11.20;;;10.50;;
58982;SDS011;44771;49.982;8.560;2023-08-17T15:29:10;11.68;;;10.88;;
58982;SDS011;44771;49.982;8.560;2023-08-17T15:34:12;12.73;;;11.73;;
58982;SDS011;44771;49.982;8.560;2023-08-17T15:39:14;11.65;;;10.85;;
58982;SDS011;44771;49.982;8.560;2023-08-17T15:44:17;89.72;;;21.65;;
58982;SDS011;44771;49.982;8.560;2023-08-17T15:49:18;48.97;;;16.48;;
58982;SDS011;44771;49.982;8.560;2023-08-17T15:54:20;20.62;;;19.08;;
58982;SDS011;44771;49.982;8.560;2023-08-17T15:59:35;14.60;;;13.52;;
58982;SDS011;44771;49.982;8.560;2023-08-17T16:04:37;15.63;;;14.63;;
58982;SDS011;44771;49.982;8.560;2023-08-17T16:09:40;12.23;;;11.43;;
58982;SDS011;44771;49.982;8.560;2023-08-17T16:14:43;14.45;;;13.45;;
58982;SDS011;44771;49.982;8.560;2023-08-17T16:19:50;12.43;;;11.48;;
58982;SDS011;44771;49.982;8.560;2023-08-17T16:24:51;14.40;;;13.13;;
58982;SDS011;44771;49.982;8.560;2023-08-17T16:29:54;12.02;;;11.23;;
58982;SDS011;44771;49.982;8.560;2023-08-17T16:34:56;19.92;;;18.42;;
58982;SDS011;44771;49.982;8.560;2023-08-17T16:39:58;14.00;;;12.82;;
58982;SDS011;44771;49.982;8.560;2023-08-17T16:45:01;128.10;;;22.55;;
58982;SDS011;44771;49.982;8.560;2023-08-17T16:50:03;52.83;;;23.12;;
58982;SDS011;44771;49.982;8.560;2023-08-17T16:55:05;78.30;;;18.08;;
58982;SDS011;44771;49.982;8.560;2023-08-17T17:00:10;62.35;;;15.32;;
58982;SDS011;44771;49.982;8.560;2023-08-17T17:05:12;18.45;;;16.58;;
58982;SDS011;44771;49.982;8.560;2023-08-17T17:10:14;25.58;;;23.33;;
58982;SDS011;44771;49.982;8.560;2023-08-17T17:15:17;15.77;;;14.75;;
58982;SDS011;44771;49.982;8.560;2023-08-17T17:20:19;16.25;;;14.95;;
58982;SDS011;44771;49.982;8.560;2023-08-17T17:25:21;14.73;;;13.38;;
58982;SDS011;44771;49.982;8.560;2023-08-17T17:30:24;19.08;;;16.08;;
58982;SDS011;44771;49.982;8.560;2023-08-17T17:35:25;14.85;;;13.85;;
58982;SDS011;44771;49.982;8.560;2023-08-17T17:40:27;15.75;;;14.75;;
58982;SDS011;44771;49.982;8.560;2023-08-17T17:45:31;15.43;;;14.43;;
58982;SDS011;44771;49.982;8.560;2023-08-17T17:50:32;16.87;;;15.85;;
58982;SDS011;44771;49.982;8.560;2023-08-17T17:55:34;263.87;;;37.25;;
58982;SDS011;44771;49.982;8.560;2023-08-17T18:00:37;19.10;;;17.92;;
58982;SDS011;44771;49.982;8.560;2023-08-17T18:05:39;14.15;;;13.20;;
58982;SDS011;44771;49.982;8.560;2023-08-17T18:10:42;15.10;;;13.82;;
58982;SDS011;44771;49.982;8.560;2023-08-17T18:15:45;12.73;;;11.82;;
58982;SDS011;44771;49.982;8.560;2023-08-17T18:20:47;14.57;;;13.30;;
58982;SDS011;44771;49.982;8.560;2023-08-17T18:25:49;15.95;;;15.00;;
58982;SDS011;44771;49.982;8.560;2023-08-17T18:30:52;52.30;;;17.45;;
58982;SDS011;44771;49.982;8.560;2023-08-17T18:35:54;596.42;;;75.87;;
58982;SDS011;44771;49.982;8.560;2023-08-17T18:41:04;39.83;;;14.77;;
58982;SDS011;44771;49.982;8.560;2023-08-17T18:46:08;37.72;;;14.38;;
58982;SDS011;44771;49.982;8.560;2023-08-17T18:51:10;14.63;;;13.68;;
58982;SDS011;44771;49.982;8.560;2023-08-17T18:56:12;246.15;;;30.73;;
58982;SDS011;44771;49.982;8.560;2023-08-17T19:01:15;17.92;;;16.52;;
58982;SDS011;44771;49.982;8.560;2023-08-17T19:06:16;39.42;;;36.95;;
58982;SDS011;44771;49.982;8.560;2023-08-17T19:11:18;65.75;;;18.77;;
58982;SDS011;44771;49.982;8.560;2023-08-17T19:16:21;16.62;;;15.55;;
58982;SDS011;44771;49.982;8.560;2023-08-17T19:21:23;18.37;;;16.92;;
58982;SDS011;44771;49.982;8.560;2023-08-17T19:26:25;15.43;;;14.23;;
58982;SDS011;44771;49.982;8.560;2023-08-17T19:31:29;13.15;;;12.25;;
58982;SDS011;44771;49.982;8.560;2023-08-17T19:36:31;14.65;;;13.43;;
58982;SDS011;44771;49.982;8.560;2023-08-17T19:41:32;16.25;;;15.07;;
58982;SDS011;44771;49.982;8.560;2023-08-17T19:46:36;14.23;;;13.25;;
58982;SDS011;44771;49.982;8.560;2023-08-17T19:51:37;12.60;;;11.60;;
58982;SDS011;44771;49.982;8.560;2023-08-17T19:56:39;12.45;;;11.43;;
58982;SDS011;44771;49.982;8.560;2023-08-17T20:01:42;57.78;;;39.00;;
58982;SDS011;44771;49.982;8.560;2023-08-17T20:06:44;14.85;;;13.73;;
58982;SDS011;44771;49.982;8.560;2023-08-17T20:11:47;16.20;;;14.85;;
58982;SDS011;44771;49.982;8.560;2023-08-17T20:16:50;16.33;;;14.95;;
58982;SDS011;44771;49.982;8.560;2023-08-17T20:21:52;16.70;;;15.50;;
58982;SDS011;44771;49.982;8.560;2023-08-17T20:26:53;17.90;;;14.45;;
58982;SDS011;44771;49.982;8.560;2023-08-17T20:31:56;21.23;;;19.75;;
58982;SDS011;44771;49.982;8.560;2023-08-17T20:36:58;17.85;;;16.48;;
58982;SDS011;44771;49.982;8.560;2023-08-17T20:42:05;18.37;;;16.77;;
58982;SDS011;44771;49.982;8.560;2023-08-17T20:47:09;14.55;;;13.35;;
58982;SDS011;44771;49.982;8.560;2023-08-17T20:52:11;16.27;;;15.02;;
58982;SDS011;44771;49.982;8.560;2023-08-17T20:57:13;14.65;;;13.43;;
58982;SDS011;44771;49.982;8.560;2023-08-17T21:02:16;12.98;;;12.05;;
58982;SDS011;44771;49.982;8.560;2023-08-17T21:07:17;15.93;;;14.48;;
58982;SDS011;44771;49.982;8.560;2023-08-17T21:12:19;70.28;;;19.80;;
58982;SDS011;44771;49.982;8.560;2023-08-17T21:17:22;15.85;;;14.45;;
58982;SDS011;44771;49.982;8.560;2023-08-17T21:22:26;18.92;;;17.05;;
58982;SDS011;44771;49.982;8.560;2023-08-17T21:27:28;19.05;;;17.65;;
58982;SDS011;44771;49.982;8.560;2023-08-17T21:32:32;15.85;;;14.25;;
58982;SDS011;44771;49.982;8.560;2023-08-17T21:37:33;15.80;;;14.30;;
58982;SDS011;44771;49.982;8.560;2023-08-17T21:42:35;16.50;;;15.18;;
58982;SDS011;44771;49.982;8.560;2023-08-17T21:47:38;39.75;;;36.63;;
58982;SDS011;44771;49.982;8.560;2023-08-17T21:52:40;14.50;;;13.15;;
58982;SDS011;44771;49.982;8.560;2023-08-17T21:57:42;14.23;;;12.95;;
58982;SDS011;44771;49.982;8.560;2023-08-17T22:02:45;15.30;;;13.68;;
58982;SDS011;44771;49.982;8.560;2023-08-17T22:07:47;14.32;;;13.13;;
58982;SDS011;44771;49.982;8.560;2023-08-17T22:12:48;13.82;;;12.73;;
58982;SDS011;44771;49.982;8.560;2023-08-17T22:17:52;14.32;;;13.05;;
58982;SDS011;44771;49.982;8.560;2023-08-17T22:22:53;15.50;;;14.25;;
58982;SDS011;44771;49.982;8.560;2023-08-17T22:27:55;31.77;;;28.83;;
58982;SDS011;44771;49.982;8.560;2023-08-17T22:32:58;8.30;;;3.42;;
58982;SDS011;44771;49.982;8.560;2023-08-17T22:38:00;13.88;;;12.55;;
58982;SDS011;44771;49.982;8.560;2023-08-17T22:43:02;14.73;;;13.32;;
58982;SDS011;44771;49.982;8.560;2023-08-17T22:48:05;14.25;;;12.90;;
58982;SDS011;44771;49.982;8.560;2023-08-17T22:53:07;14.65;;;13.38;;
58982;SDS011;44771;49.982;8.560;2023-08-17T22:58:09;14.27;;;13.32;;
58982;SDS011;44771;49.982;8.560;2023-08-17T23:03:12;14.70;;;13.60;;
58982;SDS011;44771;49.982;8.560;2023-08-17T23:08:14;16.42;;;14.73;;
58982;SDS011;44771;49.982;8.560;2023-08-17T23:13:16;16.55;;;15.13;;
58982;SDS011;44771;49.982;8.560;2023-08-17T23:18:19;14.55;;;13.35;;
58982;SDS011;44771;49.982;8.560;2023-08-17T23:23:21;15.15;;;13.73;;
58982;SDS011;44771;49.982;8.560;2023-08-17T23:28:22;77.60;;;18.75;;
58982;SDS011;44771;49.982;8.560;2023-08-17T23:33:26;15.50;;;14.18;;
58982;SDS011;44771;49.982;8.560;2023-08-17T23:38:28;16.98;;;14.57;;
58982;SDS011;44771;49.982;8.560;2023-08-17T23:43:30;15.48;;;14.02;;
58982;SDS011;44771;49.982;8.560;2023-08-17T23:48:33;15.43;;;14.05;;
58982;SDS011;44771;49.982;8.560;2023-08-17T23:53:35;17.42;;;15.63;;
58982;SDS011;44771;49.982;8.560;2023-08-17T23:58:36;18.15;;;16.35;;
